Time;durP1;ratioP1;P1;durP2;ratioP2;P2;SDS_P1;SDS_P2;PMS_P1;PMS_P2;Temp;Humidity;BMP_temperature;BMP_pressure;BME280_temperature;BME280_humidity;BME280_pressure;Samples;Min_cycle;Max_cycle;Signal;HPM_P1;HPM_P2
2023/07/03 00:00:54;;;;;;;6.30;5.80;;;;;;;22.60;85.07;99416.15;90933;1276;139309;-63
2023/07/03 00:02:56;;;;;;;8.20;6.00;;;;;;;22.55;85.40;99419.63;91120;1273;22213;-64
2023/07/03 00:04:57;;;;;;;7.30;6.70;;;;;;;22.50;85.61;99415.92;90969;1276;138952;-64
2023/07/03 00:06:59;;;;;;;6.50;5.50;;;;;;;22.46;85.98;99416.41;91101;1276;22834;-64
2023/07/03 00:09:01;;;;;;;8.20;5.80;;;;;;;22.42;86.51;99414.46;90977;1275;138487;-65
2023/07/03 00:11:05;;;;;;;5.70;5.40;;;;;;;22.31;87.13;99402.90;91094;1279;22246;-65
2023/07/03 00:13:07;;;;;;;7.10;6.40;;;;;;;22.34;87.62;99415.67;90947;1278;139690;-65
2023/07/03 00:15:10;;;;;;;6.20;5.50;;;;;;;22.30;88.26;99417.05;91016;1276;22400;-66
2023/07/03 00:17:11;;;;;;;6.50;5.80;;;;;;;22.21;88.81;99411.49;90980;1277;141009;-65
2023/07/03 00:19:13;;;;;;;6.60;5.90;;;;;;;22.16;89.52;99407.33;91086;1278;22210;-63
2023/07/03 00:21:15;;;;;;;6.40;5.80;;;;;;;22.22;89.94;99419.64;90951;1274;139359;-63
2023/07/03 00:23:17;;;;;;;5.80;5.40;;;;;;;22.20;90.59;99419.89;91095;1276;22234;-66
2023/07/03 00:25:18;;;;;;;5.30;4.90;;;;;;;22.18;91.11;99421.70;90972;1272;138146;-64
2023/07/03 00:27:20;;;;;;;5.00;4.60;;;;;;;22.16;91.51;99421.06;90984;1281;23304;-64
2023/07/03 00:29:23;;;;;;;5.20;4.90;;;;;;;22.13;91.89;99418.55;90983;1276;138588;-64
2023/07/03 00:31:24;;;;;;;4.50;4.30;;;;;;;22.13;91.71;99420.70;91007;1275;22252;-66
2023/07/03 00:33:26;;;;;;;6.10;4.90;;;;;;;22.14;92.02;99421.89;90865;1274;139845;-63
2023/07/03 00:35:27;;;;;;;6.80;4.00;;;;;;;22.15;91.92;99428.27;91003;1281;22806;-64
2023/07/03 00:37:29;;;;;;;4.30;3.90;;;;;;;22.18;91.87;99434.51;90990;1280;138323;-64
2023/07/03 00:39:31;;;;;;;4.50;3.90;;;;;;;22.19;92.07;99439.11;91048;1263;22349;-67
2023/07/03 00:41:34;;;;;;;4.40;4.10;;;;;;;22.19;92.32;99439.77;90906;1273;138563;-63
2023/07/03 00:43:43;;;;;;;5.60;3.90;;;;;;;22.20;92.27;99445.02;91069;1279;22691;-64
2023/07/03 00:45:46;;;;;;;3.90;3.60;;;;;;;22.21;91.96;99447.07;90983;1275;140195;-63
2023/07/03 00:47:49;;;;;;;3.10;3.00;;;;;;;22.26;91.69;99450.41;91081;1262;22283;-64
2023/07/03 00:49:51;;;;;;;4.00;3.00;;;;;;;22.29;91.45;99452.05;90935;1269;138235;-64
2023/07/03 00:51:55;;;;;;;3.80;3.50;;;;;;;22.34;91.39;99454.34;91049;1275;22289;-64
2023/07/03 00:53:57;;;;;;;5.10;4.60;;;;;;;22.37;90.82;99453.77;90977;1273;137978;-66
2023/07/03 00:55:58;;;;;;;5.70;3.60;;;;;;;22.40;91.24;99455.05;91089;1273;22211;-63
2023/07/03 00:58:00;;;;;;;3.50;3.20;;;;;;;22.42;91.15;99456.05;90915;1275;137770;-64
2023/07/03 01:00:04;;;;;;;4.40;3.50;;;;;;;22.37;91.05;99457.20;91002;1269;22212;-65
2023/07/03 01:02:27;;;;;;;3.90;3.60;;;;;;;22.28;92.04;99460.60;91049;1277;22407;-65
2023/07/03 01:04:44;;;;;;;3.70;3.40;;;;;;;22.22;92.39;99462.96;90991;1276;139552;-65
2023/07/03 01:06:51;;;;;;;3.70;3.40;;;;;;;22.18;92.66;99460.73;91066;1278;22293;-65
2023/07/03 01:08:57;;;;;;;4.30;3.50;;;;;;;22.14;92.87;99460.88;90977;1276;138207;-64
2023/07/03 01:10:59;;;;;;;4.30;3.60;;;;;;;22.11;93.21;99461.82;91078;1280;22332;-64
2023/07/03 01:13:06;;;;;;;4.90;4.20;;;;;;;22.07;93.76;99461.05;90962;1277;138197;-65
2023/07/03 01:15:11;;;;;;;3.60;3.30;;;;;;;22.03;93.74;99464.77;90976;1263;22264;-65
2023/07/03 01:17:14;;;;;;;3.40;3.20;;;;;;;22.06;93.46;99469.46;90923;1279;139296;-65
2023/07/03 01:19:29;;;;;;;4.30;3.90;;;;;;;22.13;92.99;99474.23;90981;1278;22669;-65
2023/07/03 01:21:47;;;;;;;4.10;3.80;;;;;;;22.23;92.38;99473.61;90911;1281;138089;-65
2023/07/03 01:23:56;;;;;;;4.60;3.30;;;;;;;22.31;91.72;99476.95;91034;1280;22141;-65
2023/07/03 01:25:58;;;;;;;4.50;4.20;;;;;;;22.40;90.99;99478.94;90988;1276;139072;-66
2023/07/03 01:28:03;;;;;;;3.60;3.30;;;;;;;22.46;90.62;99480.29;91015;1281;22301;-65
2023/07/03 01:30:08;;;;;;;4.00;3.60;;;;;;;22.54;89.87;99481.11;91000;1275;22249;-64
2023/07/03 01:32:11;;;;;;;4.20;3.70;;;;;;;22.62;89.40;99480.21;90934;1276;138675;-64
2023/07/03 01:34:13;;;;;;;4.10;3.10;;;;;;;22.67;88.79;99482.16;91021;1276;23021;-64
2023/07/03 01:36:17;;;;;;;3.80;3.50;;;;;;;22.73;88.55;99481.33;90941;1275;138801;-66
2023/07/03 01:38:21;;;;;;;3.40;3.30;;;;;;;22.78;88.11;99482.54;91054;1281;22228;-65
2023/07/03 01:40:25;;;;;;;3.60;3.40;;;;;;;22.80;88.23;99483.64;90870;1274;139004;-64
2023/07/03 01:42:28;;;;;;;;;;;;;;;22.78;88.41;99479.27;91081;1276;22394;-66
2023/07/03 01:44:30;;;;;;;3.90;3.60;;;;;;;22.69;88.53;99481.88;90906;1273;126379;-65
2023/07/03 01:46:31;;;;;;;3.40;3.00;;;;;;;22.61;88.81;99486.47;90991;1274;22228;-65
2023/07/03 01:48:34;;;;;;;4.80;4.40;;;;;;;22.60;88.96;99487.63;90970;1276;139393;-65
2023/07/03 01:50:37;;;;;;;4.20;3.80;;;;;;;22.61;89.20;99484.30;91086;1281;22838;-65
2023/07/03 01:52:47;;;;;;;3.90;3.60;;;;;;;22.58;89.27;99484.93;91037;1277;139426;-65
2023/07/03 01:54:55;;;;;;;3.40;2.70;;;;;;;22.60;89.04;99483.43;91019;1261;22262;-65
2023/07/03 01:57:00;;;;;;;4.30;3.90;;;;;;;22.61;89.63;99487.66;90918;1274;138297;-65
2023/07/03 01:59:08;;;;;;;4.70;4.00;;;;;;;22.58;89.70;99487.27;91046;1277;22180;-66
2023/07/03 02:01:16;;;;;;;3.60;3.40;;;;;;;22.50;90.38;99489.04;90957;1273;142832;-66
2023/07/03 02:03:36;;;;;;;7.50;3.80;;;;;;;22.45;90.68;99489.41;91013;1281;22854;-66
2023/07/03 02:05:39;;;;;;;6.40;4.00;;;;;;;22.42;91.51;99491.02;90924;1263;139232;-66
2023/07/03 02:07:45;;;;;;;4.00;3.80;;;;;;;22.31;92.06;99494.61;91048;1278;22190;-65
2023/07/03 02:09:47;;;;;;;5.10;4.20;;;;;;;22.27;92.44;99493.89;90846;1279;138816;-67
2023/07/03 02:11:48;;;;;;;5.70;5.30;;;;;;;22.26;92.79;99496.27;91063;1277;22257;-65
2023/07/03 02:13:50;;;;;;;5.30;4.70;;;;;;;22.27;92.54;99494.70;90969;1280;140695;-65
2023/07/03 02:15:52;;;;;;;5.40;4.90;;;;;;;22.31;92.39;99501.06;91009;1272;22847;-64
2023/07/03 02:17:55;;;;;;;5.40;5.10;;;;;;;22.35;92.45;99498.59;90978;1277;138829;-63
2023/07/03 02:19:58;;;;;;;5.70;5.30;;;;;;;22.35;92.33;99499.61;91002;1279;22147;-64
2023/07/03 02:22:00;;;;;;;5.30;4.90;;;;;;;22.36;92.39;99498.16;90975;1273;137720;-63
2023/07/03 02:24:04;;;;;;;5.40;5.00;;;;;;;22.38;92.52;99499.65;91083;1280;22298;-64
2023/07/03 02:26:06;;;;;;;9.30;7.20;;;;;;;22.39;92.32;99500.77;91047;1277;22198;-66
2023/07/03 02:28:07;;;;;;;6.00;5.50;;;;;;;22.40;92.32;99501.68;90925;1273;138110;-67
2023/07/03 02:30:10;;;;;;;6.10;5.70;;;;;;;22.40;92.14;99497.17;91049;1273;22289;-65
2023/07/03 02:32:12;;;;;;;9.10;7.00;;;;;;;22.44;91.84;99503.27;90870;1263;139502;-64
2023/07/03 02:34:15;;;;;;;7.30;6.70;;;;;;;22.43;91.78;99503.88;90971;1273;22652;-65
2023/07/03 02:36:17;;;;;;;6.40;6.00;;;;;;;22.44;91.96;99505.60;90921;1273;137858;-65
2023/07/03 02:38:18;;;;;;;7.20;6.30;;;;;;;22.48;92.00;99508.88;91032;1257;23147;-65
2023/07/03 02:40:20;;;;;;;6.70;6.20;;;;;;;22.50;92.09;99511.95;90956;1274;139847;-65
2023/07/03 02:42:22;;;;;;;6.10;5.70;;;;;;;22.50;92.18;99515.48;90985;1270;22296;-67
2023/07/03 02:44:24;;;;;;;6.70;6.10;;;;;;;22.50;92.21;99518.90;90866;1273;139276;-64
2023/07/03 02:46:26;;;;;;;6.70;5.90;;;;;;;22.48;92.17;99519.73;91047;1273;22394;-64
2023/07/03 02:48:28;;;;;;;6.90;6.30;;;;;;;22.44;92.27;99525.58;90913;1273;138360;-64
2023/07/03 02:50:29;;;;;;;7.50;6.90;;;;;;;22.42;92.43;99534.41;91038;1273;22338;-66
2023/07/03 02:52:31;;;;;;;7.10;6.40;;;;;;;22.36;92.59;99529.25;90943;1273;138102;-64
2023/07/03 02:54:33;;;;;;;7.50;6.80;;;;;;;22.42;92.45;99540.45;91010;1273;22185;-64
2023/07/03 02:56:36;;;;;;;7.40;6.90;;;;;;;22.40;92.30;99542.26;90841;1273;138254;-66
2023/07/03 02:58:38;;;;;;;8.00;7.40;;;;;;;22.31;92.14;99531.08;91041;1273;22239;-68
2023/07/03 03:00:42;;;;;;;7.30;6.80;;;;;;;22.36;91.71;99544.78;90897;1273;137718;-65
2023/07/03 03:02:44;;;;;;;8.10;7.30;;;;;;;22.35;91.79;99542.08;91098;1280;22125;-65
2023/07/03 03:04:47;;;;;;;8.20;7.60;;;;;;;22.31;91.97;99537.66;90908;1276;138604;-64
2023/07/03 03:06:49;;;;;;;8.10;7.50;;;;;;;22.30;92.16;99537.12;91092;1272;22321;-64
2023/07/03 03:08:51;;;;;;;8.20;7.60;;;;;;;22.32;91.93;99543.84;90915;1261;139384;-63
2023/07/03 03:10:53;;;;;;;7.90;7.20;;;;;;;22.30;91.88;99543.05;91019;1267;22188;-65
2023/07/03 03:12:55;;;;;;;7.20;6.70;;;;;;;22.30;91.73;99537.23;90979;1261;140260;-65
2023/07/03 03:14:57;;;;;;;8.20;7.50;;;;;;;22.33;91.72;99539.59;91016;1274;22234;-65
2023/07/03 03:16:58;;;;;;;8.00;7.40;;;;;;;22.32;91.19;99531.67;90970;1257;139831;-65
2023/07/03 03:19:01;;;;;;;8.90;7.60;;;;;;;22.37;91.05;99540.55;91012;1280;22974;-64
2023/07/03 03:21:03;;;;;;;7.80;7.30;;;;;;;22.35;91.25;99545.72;90862;1278;140366;-66
2023/07/03 03:23:04;;;;;;;7.50;6.90;;;;;;;22.33;91.49;99545.04;91038;1280;22213;-64
2023/07/03 03:25:06;;;;;;;8.50;7.80;;;;;;;22.31;91.62;99550.52;90956;1273;137920;-65
2023/07/03 03:27:08;;;;;;;8.00;7.40;;;;;;;22.30;91.53;99550.20;91099;1272;23132;-66
2023/07/03 03:29:10;;;;;;;8.60;7.70;;;;;;;22.29;91.61;99554.62;90967;1276;139054;-65
2023/07/03 03:31:12;;;;;;;8.10;7.50;;;;;;;22.31;91.61;99553.84;91018;1273;22331;-64
2023/07/03 03:33:21;;;;;;;8.80;8.00;;;;;;;22.33;91.43;99561.04;90891;1273;138033;-65
2023/07/03 03:35:22;;;;;;;7.90;7.40;;;;;;;22.34;91.33;99562.66;91073;1279;22355;-64
2023/07/03 03:37:24;;;;;;;7.90;7.30;;;;;;;22.38;91.29;99565.13;90913;1279;137970;-64
2023/07/03 03:39:26;;;;;;;7.90;7.40;;;;;;;22.41;91.49;99568.04;91021;1278;22258;-64
2023/07/03 03:41:28;;;;;;;8.00;7.40;;;;;;;22.44;91.29;99571.33;90928;1274;138131;-64
2023/07/03 03:43:30;;;;;;;8.20;7.60;;;;;;;22.44;91.42;99575.02;91037;1264;22882;-64
2023/07/03 03:45:32;;;;;;;7.60;7.10;;;;;;;22.44;91.42;99578.05;90898;1263;139249;-64
2023/07/03 03:47:34;;;;;;;8.50;8.00;;;;;;;22.46;91.75;99577.27;91042;1268;23098;-65
2023/07/03 03:49:37;;;;;;;8.40;7.70;;;;;;;22.45;91.94;99583.04;90843;1267;139265;-68
2023/07/03 03:51:40;;;;;;;8.30;7.70;;;;;;;22.42;91.79;99585.18;91020;1272;22404;-65
2023/07/03 03:53:42;;;;;;;8.70;7.80;;;;;;;22.39;91.70;99583.73;90940;1281;138426;-64
2023/07/03 03:55:48;;;;;;;8.50;7.80;;;;;;;22.28;91.64;99565.16;91052;1272;22834;-65
2023/07/03 03:57:50;;;;;;;8.60;8.00;;;;;;;22.34;91.84;99575.16;90983;1272;139117;-64
2023/07/03 03:59:53;;;;;;;9.30;8.60;;;;;;;22.33;92.16;99572.39;90956;1268;22232;-65
2023/07/03 04:01:55;;;;;;;8.00;7.30;;;;;;;22.35;91.97;99574.27;90763;1267;138568;-64
2023/07/03 04:03:56;;;;;;;9.00;8.30;;;;;;;22.39;91.56;99579.95;91095;1272;22325;-64
2023/07/03 04:05:58;;;;;;;9.50;8.40;;;;;;;22.44;91.37;99584.08;90985;1271;137470;-65
2023/07/03 04:08:00;;;;;;;9.20;8.40;;;;;;;22.48;90.97;99587.90;91104;1272;22228;-64
2023/07/03 04:10:03;;;;;;;7.10;6.40;;;;;;;22.48;91.14;99597.17;90990;1272;140638;-65
2023/07/03 04:12:05;;;;;;;8.30;7.40;;;;;;;22.44;91.14;99595.91;90754;1273;138779;-65
2023/07/03 04:14:07;;;;;;;7.60;7.20;;;;;;;22.56;91.25;99608.56;91058;1272;22124;-64
2023/07/03 04:16:09;;;;;;;7.60;7.10;;;;;;;22.63;90.82;99613.84;90886;1273;138240;-64
2023/07/03 04:18:11;;;;;;;8.00;7.40;;;;;;;22.67;90.54;99612.10;91075;1272;22406;-65
2023/07/03 04:20:17;;;;;;;9.00;8.20;;;;;;;22.68;90.13;99612.38;90929;1272;140228;-65
2023/07/03 04:22:19;;;;;;;7.30;6.70;;;;;;;22.66;90.02;99614.63;91102;1272;23044;-63
2023/07/03 04:24:21;;;;;;;9.40;8.70;;;;;;;22.66;90.00;99613.86;90986;1272;141068;-65
2023/07/03 04:26:23;;;;;;;8.50;7.60;;;;;;;22.64;89.70;99615.07;91042;1272;22231;-64
2023/07/03 04:28:24;;;;;;;8.90;8.10;;;;;;;22.61;89.77;99611.67;90957;1271;139079;-64
2023/07/03 04:30:26;;;;;;;7.50;7.00;;;;;;;22.57;89.96;99613.98;91119;1270;22325;-65
2023/07/03 04:32:28;;;;;;;8.20;7.60;;;;;;;22.54;90.19;99616.95;90805;1272;137995;-67
2023/07/03 04:34:29;;;;;;;8.90;8.30;;;;;;;22.53;90.19;99615.23;91064;1272;22396;-65
2023/07/03 04:36:31;;;;;;;8.00;7.40;;;;;;;22.50;89.90;99623.55;90912;1272;137842;-65
2023/07/03 04:38:33;;;;;;;8.30;7.60;;;;;;;22.45;89.95;99626.05;91094;1272;23089;-65
2023/07/03 04:40:37;;;;;;;9.40;7.90;;;;;;;22.43;90.27;99632.68;90860;1272;138225;-65
2023/07/03 04:42:39;;;;;;;7.90;7.30;;;;;;;22.42;90.02;99633.14;91081;1272;23099;-64
2023/07/03 04:44:41;;;;;;;7.80;7.20;;;;;;;22.42;89.94;99636.95;90933;1272;139087;-65
2023/07/03 04:46:43;;;;;;;8.10;7.50;;;;;;;22.44;89.85;99641.96;91092;1272;22247;-64
2023/07/03 04:48:45;;;;;;;9.10;8.40;;;;;;;22.47;89.78;99646.08;90926;1272;139356;-67
2023/07/03 04:50:48;;;;;;;7.10;6.60;;;;;;;22.49;89.99;99648.55;91060;1272;22403;-65
2023/07/03 04:52:51;;;;;;;8.20;7.60;;;;;;;22.51;90.15;99649.89;90990;1272;138877;-64
2023/07/03 04:54:54;;;;;;;7.60;7.00;;;;;;;22.53;90.08;99649.92;91073;1272;22334;-64
2023/07/03 04:56:56;;;;;;;8.20;7.50;;;;;;;22.55;90.37;99659.25;90976;1279;137988;-64
2023/07/03 04:58:57;;;;;;;8.00;7.40;;;;;;;22.58;90.38;99661.89;91123;1272;22330;-64
2023/07/03 05:00:59;;;;;;;8.10;7.40;;;;;;;22.60;90.33;99661.83;91009;1256;139410;-66
2023/07/03 05:03:04;;;;;;;7.60;6.90;;;;;;;22.60;90.23;99666.00;91123;1272;22261;-64
2023/07/03 05:05:06;;;;;;;7.10;6.60;;;;;;;22.60;90.06;99667.30;91002;1256;140975;-66
2023/07/03 05:07:08;;;;;;;7.40;6.90;;;;;;;22.60;89.19;99667.30;91015;1263;22227;-64
2023/07/03 05:09:10;;;;;;;6.70;6.20;;;;;;;22.59;88.62;99673.45;90997;1272;138075;-64
2023/07/03 05:11:12;;;;;;;7.00;6.30;;;;;;;22.61;87.59;99676.55;91151;1272;22371;-64
2023/07/03 05:13:13;;;;;;;6.80;5.40;;;;;;;22.61;86.48;99679.25;91026;1272;139484;-64
2023/07/03 05:15:16;;;;;;;5.80;5.40;;;;;;;22.61;85.53;99682.19;91067;1272;23519;-66
2023/07/03 05:17:19;;;;;;;6.20;5.80;;;;;;;22.61;85.33;99683.75;90933;1272;140919;-64
2023/07/03 05:19:22;;;;;;;6.10;5.70;;;;;;;22.63;85.62;99684.88;91098;1272;22281;-65
2023/07/03 05:21:23;;;;;;;5.90;5.50;;;;;;;22.69;86.02;99685.81;90887;1263;137830;-68
2023/07/03 05:23:25;;;;;;;6.50;5.90;;;;;;;22.73;85.86;99687.24;91084;1267;22328;-65
2023/07/03 05:25:27;;;;;;;6.30;5.90;;;;;;;22.78;85.58;99688.40;90955;1272;139241;-65
2023/07/03 05:27:28;;;;;;;7.00;6.30;;;;;;;22.80;85.56;99687.52;91020;1272;22449;-64
2023/07/03 05:29:32;;;;;;;6.40;6.00;;;;;;;22.81;85.77;99694.83;90940;1272;139279;-65
2023/07/03 05:31:33;;;;;;;6.10;5.80;;;;;;;22.81;85.59;99695.72;91062;1272;23038;-64
2023/07/03 05:33:35;;;;;;;6.10;5.70;;;;;;;22.84;85.53;99697.36;90981;1272;138559;-64
2023/07/03 05:35:38;;;;;;;6.10;5.60;;;;;;;22.92;84.90;99696.90;91149;1272;22164;-64
2023/07/03 05:37:50;;;;;;;6.30;5.90;;;;;;;22.99;84.30;99699.89;91008;1273;137618;-65
2023/07/03 05:39:52;;;;;;;6.80;6.20;;;;;;;23.13;83.37;99705.38;91111;1272;22423;-69
2023/07/03 05:41:54;;;;;;;7.70;6.10;;;;;;;23.37;83.07;99706.60;90879;1272;136899;-64
2023/07/03 05:43:56;;;;;;;6.30;5.80;;;;;;;23.66;81.99;99705.61;91086;1272;22333;-65
2023/07/03 05:45:57;;;;;;;6.40;6.00;;;;;;;23.99;78.88;99710.39;90966;1262;138553;-63
2023/07/03 05:47:59;;;;;;;5.80;5.30;;;;;;;24.10;76.42;99703.05;91092;1272;22356;-66
2023/07/03 05:50:02;;;;;;;5.90;5.50;;;;;;;24.10;75.46;99702.02;90961;1271;137763;-64
2023/07/03 05:52:04;;;;;;;6.50;6.00;;;;;;;24.15;75.66;99701.85;90925;1273;137748;-63
2023/07/03 05:54:06;;;;;;;6.60;6.00;;;;;;;24.34;75.20;99705.10;91103;1272;22405;-67
2023/07/03 05:56:08;;;;;;;5.90;5.50;;;;;;;24.62;74.42;99705.95;91026;1272;137936;-64
2023/07/03 05:58:09;;;;;;;7.10;6.50;;;;;;;24.97;73.26;99705.55;91123;1272;23106;-65
2023/07/03 06:00:15;;;;;;;6.00;5.50;;;;;;;25.35;71.35;99712.77;91032;1272;138064;-66
2023/07/03 06:02:19;;;;;;;6.40;5.90;;;;;;;25.61;69.31;99714.66;91148;1272;23570;-65
2023/07/03 06:04:22;;;;;;;5.40;5.10;;;;;;;25.79;68.81;99718.17;90945;1272;139171;-66
2023/07/03 06:06:24;;;;;;;7.10;6.40;;;;;;;26.00;67.61;99719.05;91129;1272;22227;-65
2023/07/03 06:08:25;;;;;;;7.90;5.60;;;;;;;26.23;66.18;99721.79;91003;1272;138182;-65
2023/07/03 06:10:27;;;;;;;5.60;5.00;;;;;;;26.41;64.89;99727.55;91092;1272;22506;-64
2023/07/03 06:12:29;;;;;;;6.20;5.70;;;;;;;26.47;64.25;99724.23;91021;1272;138562;-66
2023/07/03 06:14:31;;;;;;;5.90;5.50;;;;;;;26.57;64.45;99727.55;91016;1273;22180;-64
2023/07/03 06:16:34;;;;;;;6.10;5.40;;;;;;;26.73;64.40;99731.00;91042;1272;137393;-65
2023/07/03 06:18:37;;;;;;;6.90;6.30;;;;;;;26.92;63.24;99727.05;91131;1272;22987;-66
2023/07/03 06:20:39;;;;;;;6.10;5.50;;;;;;;27.08;62.48;99726.59;90961;1272;137821;-66
2023/07/03 06:22:41;;;;;;;6.30;5.80;;;;;;;27.18;61.89;99727.34;91131;1272;22149;-65
2023/07/03 06:24:44;;;;;;;6.00;5.50;;;;;;;27.25;62.24;99726.53;91057;1272;138989;-65
2023/07/03 06:26:45;;;;;;;5.40;5.00;;;;;;;27.39;61.48;99722.98;90970;1272;22362;-66
2023/07/03 06:28:47;;;;;;;5.50;5.10;;;;;;;27.56;60.75;99724.54;90943;1259;137089;-63
2023/07/03 06:30:49;;;;;;;6.60;6.10;;;;;;;27.66;60.00;99720.54;91137;1272;22905;-65
2023/07/03 06:32:52;;;;;;;5.40;5.10;;;;;;;27.58;60.13;99723.14;90794;1272;138730;-66
2023/07/03 06:34:56;;;;;;;5.20;4.90;;;;;;;27.44;60.44;99723.46;91096;1272;22204;-66
2023/07/03 06:36:57;;;;;;;6.90;5.60;;;;;;;27.26;60.75;99725.31;91010;1272;138914;-68
2023/07/03 06:38:59;;;;;;;5.00;4.50;;;;;;;27.13;60.99;99730.19;91131;1272;23137;-65
2023/07/03 06:41:01;;;;;;;5.50;5.10;;;;;;;27.05;61.37;99732.08;90730;1274;197403;-69
2023/07/03 06:45:31;;;;;;;5.60;4.70;;;;;;;26.87;60.85;99736.14;85576;1304;551812;-65
2023/07/03 06:47:32;;;;;;;5.80;5.00;;;;;;;26.77;62.55;99737.69;87241;1285;24218;-65
2023/07/03 06:49:35;;;;;;;4.80;4.50;;;;;;;26.72;62.77;99742.56;87195;1285;138839;-65
2023/07/03 06:51:37;;;;;;;7.10;5.00;;;;;;;26.65;61.92;99743.84;87395;1284;26513;-64
2023/07/03 06:53:41;;;;;;;5.30;5.00;;;;;;;26.54;61.93;99745.27;87151;1281;138125;-64
2023/07/03 06:55:42;;;;;;;5.50;5.20;;;;;;;26.45;62.97;99745.80;87634;1278;22755;-66
2023/07/03 06:57:44;;;;;;;5.50;5.10;;;;;;;26.42;64.02;99753.48;87597;1277;138203;-66
2023/07/03 06:59:45;;;;;;;7.90;6.50;;;;;;;26.42;63.71;99753.77;87690;1275;212015;-66
2023/07/03 07:01:47;;;;;;;5.90;5.60;;;;;;;26.33;64.15;99751.38;87696;1275;137195;-65
2023/07/03 07:03:50;;;;;;;5.30;4.90;;;;;;;26.17;64.35;99753.11;87741;1268;24606;-68
2023/07/03 07:05:53;;;;;;;5.50;5.20;;;;;;;25.99;64.34;99759.61;87570;1278;138628;-64
2023/07/03 07:07:56;;;;;;;6.10;5.50;;;;;;;25.81;65.93;99763.12;90868;1275;22378;-65
2023/07/03 07:09:57;;;;;;;5.50;5.00;;;;;;;25.67;66.42;99764.70;90804;1275;136797;-65
2023/07/03 07:11:59;;;;;;;5.90;5.50;;;;;;;25.59;66.61;99765.55;90974;1274;22650;-66
2023/07/03 07:14:04;;;;;;;5.90;5.50;;;;;;;25.49;66.86;99765.98;90872;1275;137875;-67
2023/07/03 07:16:13;;;;;;;5.60;5.10;;;;;;;25.38;68.08;99770.05;90880;1275;137309;-66
2023/07/03 07:18:16;;;;;;;6.00;5.00;;;;;;;25.30;68.35;99769.11;90942;1275;22553;-65
2023/07/03 07:20:17;;;;;;;6.40;5.90;;;;;;;25.22;69.07;99772.05;90798;1275;139888;-64
2023/07/03 07:22:19;;;;;;;6.10;5.60;;;;;;;25.18;70.31;99772.02;90978;1275;22330;-65
2023/07/03 07:24:23;;;;;;;5.50;5.10;;;;;;;25.25;69.99;99772.58;90800;1275;137243;-65
2023/07/03 07:26:28;;;;;;;;;;;;;;;25.41;69.68;99775.30;90886;1276;22494;-66
2023/07/03 07:28:30;;;;;;;5.70;5.10;;;;;;;25.58;69.03;99775.56;90718;1278;125490;-67
2023/07/03 07:30:36;;;;;;;5.30;4.90;;;;;;;25.77;67.99;99778.37;90907;1269;22326;-67
2023/07/03 07:32:38;;;;;;;4.80;4.60;;;;;;;26.00;67.23;99777.27;90847;1275;137767;-67
2023/07/03 07:34:40;;;;;;;4.70;4.20;;;;;;;26.25;63.53;99779.15;90950;1275;22299;-65
2023/07/03 07:36:42;;;;;;;4.10;3.90;;;;;;;26.42;60.92;99780.58;90829;1274;137834;-64
2023/07/03 07:38:44;;;;;;;5.70;3.60;;;;;;;26.54;59.58;99781.98;90930;1275;22341;-65
2023/07/03 07:40:46;;;;;;;4.50;3.40;;;;;;;26.69;58.69;99784.91;90841;1275;137787;-64
2023/07/03 07:42:47;;;;;;;3.70;3.40;;;;;;;26.85;57.65;99785.42;90916;1275;22365;-64
2023/07/03 07:44:50;;;;;;;3.40;3.20;;;;;;;26.99;57.05;99788.58;90842;1275;137236;-65
2023/07/03 07:46:51;;;;;;;3.70;3.50;;;;;;;27.08;55.12;99788.46;90924;1276;22996;-66
2023/07/03 07:48:53;;;;;;;4.70;3.00;;;;;;;27.09;55.15;99791.11;90847;1275;137781;-67
2023/07/03 07:50:55;;;;;;;2.70;2.40;;;;;;;27.13;54.49;99791.61;91006;1275;22218;-65
2023/07/03 07:52:59;;;;;;;3.40;2.80;;;;;;;27.17;53.92;99793.51;90965;1273;137235;-66
2023/07/03 07:55:01;;;;;;;;;;;;;;;27.16;54.17;99795.17;91071;1273;23140;-66
2023/07/03 07:57:03;;;;;;;2.90;2.70;;;;;;;27.11;53.65;99795.70;90881;1273;123499;-66
2023/07/03 07:59:05;;;;;;;3.00;2.90;;;;;;;27.05;53.60;99793.89;91061;1273;23038;-66
2023/07/03 08:01:06;;;;;;;1.70;1.70;;;;;;;27.03;53.36;99789.61;90944;1273;137061;-66
2023/07/03 08:03:08;;;;;;;3.30;3.10;;;;;;;27.07;51.97;99795.36;91076;1273;22303;-64
2023/07/03 08:05:10;;;;;;;2.10;2.00;;;;;;;27.08;52.01;99799.02;90757;1274;137925;-65
2023/07/03 08:07:12;;;;;;;2.50;2.10;;;;;;;27.00;50.41;99794.66;91065;1273;23057;-65
2023/07/03 08:09:14;;;;;;;1.80;1.60;;;;;;;26.92;50.07;99787.81;90976;1273;138458;-65
2023/07/03 08:11:15;;;;;;;1.00;0.90;;;;;;;26.99;48.45;99799.05;91049;1273;22449;-65
2023/07/03 08:13:17;;;;;;;3.80;0.70;;;;;;;27.05;46.02;99801.23;90989;1273;137895;-65
2023/07/03 08:15:20;;;;;;;0.90;0.90;;;;;;;27.05;45.31;99803.39;90975;1273;22337;-67
2023/07/03 08:17:21;;;;;;;0.80;0.80;;;;;;;27.06;46.19;99807.15;90976;1273;138111;-64
2023/07/03 08:19:23;;;;;;;1.80;1.30;;;;;;;27.06;47.12;99808.77;90864;1276;22214;-63
2023/07/03 08:21:25;;;;;;;2.20;1.50;;;;;;;27.07;47.77;99809.77;90962;1274;137045;-65
2023/07/03 08:23:26;;;;;;;2.40;1.50;;;;;;;27.07;48.49;99807.41;91083;1273;22133;-65
2023/07/03 08:25:28;;;;;;;3.70;0.90;;;;;;;27.08;47.48;99811.92;90914;1273;139161;-64
2023/07/03 08:27:30;;;;;;;3.30;1.30;;;;;;;27.10;47.89;99816.63;91048;1274;22948;-65
2023/07/03 08:29:32;;;;;;;1.20;0.90;;;;;;;27.10;48.13;99818.54;90874;1273;136884;-64
2023/07/03 08:31:33;;;;;;;1.10;0.50;;;;;;;27.11;47.81;99819.60;91028;1273;23055;-66
2023/07/03 08:33:35;;;;;;;2.50;1.20;;;;;;;27.10;47.65;99818.52;90927;1273;137834;-65
2023/07/03 08:35:37;;;;;;;1.50;1.40;;;;;;;27.09;47.40;99816.82;91001;1273;22992;-65
2023/07/03 08:37:41;;;;;;;6.30;1.30;;;;;;;27.11;47.62;99818.09;90895;1273;137086;-65
2023/07/03 08:39:43;;;;;;;1.10;0.90;;;;;;;27.11;47.03;99818.35;91044;1273;22323;-64
2023/07/03 08:41:54;;;;;;;0.90;0.90;;;;;;;27.07;46.92;99820.46;90950;1273;136958;-69
2023/07/03 08:43:58;;;;;;;2.50;0.60;;;;;;;27.03;45.68;99819.88;91042;1273;22384;-65
2023/07/03 08:46:02;;;;;;;0.80;0.70;;;;;;;27.00;45.26;99823.38;90930;1273;136929;-64
2023/07/03 08:48:07;;;;;;;0.60;0.60;;;;;;;26.95;46.10;99827.92;90862;1275;138449;-64
2023/07/03 08:50:15;;;;;;;0.60;0.50;;;;;;;26.94;45.25;99833.03;91075;1273;22796;-65
2023/07/03 08:52:44;;;;;;;2.30;0.80;;;;;;;26.88;45.29;99834.34;90923;1272;137782;-64
2023/07/03 08:54:49;;;;;;;1.70;0.80;;;;;;;26.80;46.44;99829.54;90990;1273;22358;-67
2023/07/03 08:56:53;;;;;;;1.10;0.70;;;;;;;26.77;46.78;99830.70;90930;1273;136667;-64
2023/07/03 08:58:55;;;;;;;3.20;1.00;;;;;;;26.75;46.86;99833.33;91049;1273;22359;-64
2023/07/03 09:01:06;;;;;;;2.50;0.60;;;;;;;26.72;46.66;99831.63;90819;1275;137142;-67
2023/07/03 09:03:25;;;;;;;1.50;1.40;;;;;;;26.73;46.97;99827.84;91061;1262;22985;-67
2023/07/03 09:06:05;;;;;;;2.00;1.70;;;;;;;26.78;47.94;99824.45;90887;1273;136600;-66
2023/07/03 09:08:11;;;;;;;2.50;1.70;;;;;;;26.86;49.14;99824.09;90715;1273;138794;-65
2023/07/03 09:10:20;;;;;;;2.10;1.90;;;;;;;26.94;49.53;99822.64;90852;1261;22451;-64
2023/07/03 09:12:33;;;;;;;2.10;2.00;;;;;;;27.07;48.89;99825.39;90915;1273;137156;-66
2023/07/03 09:14:53;;;;;;;4.10;2.00;;;;;;;27.15;48.39;99827.99;90890;1275;22526;-64
2023/07/03 09:16:55;;;;;;;3.90;2.50;;;;;;;27.17;47.76;99826.08;90831;1275;139077;-64
2023/07/03 09:19:04;;;;;;;3.80;2.20;;;;;;;27.16;48.21;99823.21;91072;1273;23059;-63
2023/07/03 09:21:06;;;;;;;2.40;1.60;;;;;;;27.18;48.22;99821.90;90936;1273;137224;-65
2023/07/03 09:23:27;;;;;;;3.20;1.80;;;;;;;27.21;48.95;99822.53;91047;1273;22401;-65
2023/07/03 09:25:41;;;;;;;1.20;1.10;;;;;;;27.25;49.03;99828.27;90897;1273;138890;-65
2023/07/03 09:27:44;;;;;;;2.00;1.80;;;;;;;27.26;48.42;99824.75;90922;1272;22241;-65
2023/07/03 09:29:49;;;;;;;4.80;4.10;;;;;;;27.26;48.42;99829.45;90932;1272;139114;-67
2023/07/03 09:31:53;;;;;;;2.60;2.20;;;;;;;27.24;49.08;99833.14;91054;1275;22221;-64
2023/07/03 09:33:55;;;;;;;;;;;;;;;27.19;48.15;99834.95;90956;1275;137658;-64
2023/07/03 09:36:18;;;;;;;5.50;2.50;;;;;;;27.06;48.03;99836.84;91054;1273;22327;-65
2023/07/03 09:38:22;;;;;;;2.10;1.60;;;;;;;26.88;48.66;99835.42;91009;1274;22862;-64
2023/07/03 09:40:29;;;;;;;3.40;3.10;;;;;;;26.81;50.42;99836.08;90873;1275;136990;-66